Time;durP1;ratioP1;P1;durP2;ratioP2;P2;SDS_P1;SDS_P2;PMS_P1;PMS_P2;Temp;Humidity;BMP_temperature;BMP_pressure;BME280_temperature;BME280_humidity;BME280_pressure;Samples;Min_cycle;Max_cycle;Signal;HPM_P1;HPM_P2
2023/10/19 00:00:49;;;;;;;1.00;0.60;;;19.40;70.70;;;;;;5059761;28;20059;-82
2023/10/19 00:03:15;;;;;;;1.30;0.50;;;19.40;70.60;;;;;;5059462;28;20094;-81
2023/10/19 00:05:45;;;;;;;0.90;0.43;;;19.30;70.50;;;;;;5061794;28;20163;-81
2023/10/19 00:08:19;;;;;;;1.00;0.50;;;19.40;70.60;;;;;;5040859;28;20041;-82
2023/10/19 00:10:55;;;;;;;2.03;0.60;;;19.40;70.60;;;;;;5089140;28;20041;-82
2023/10/19 00:13:22;;;;;;;1.58;0.60;;;19.40;70.70;;;;;;5058775;28;20032;-81
2023/10/19 00:15:48;;;;;;;0.80;0.70;;;19.40;70.60;;;;;;5059077;28;20063;-77
2023/10/19 00:23:18;;;;;;;1.20;0.47;;;19.40;70.60;;;;;;5042157;28;20071;-82
2023/10/19 00:25:50;;;;;;;1.00;0.50;;;19.30;70.60;;;;;;5059664;28;20383;-82
2023/10/19 00:28:17;;;;;;;1.10;0.60;;;19.40;70.70;;;;;;5049619;28;20505;-83
2023/10/19 00:30:49;;;;;;;0.70;0.68;;;19.40;70.60;;;;;;5059911;28;20037;-82
2023/10/19 00:33:21;;;;;;;0.70;0.52;;;19.40;70.70;;;;;;5054121;28;20049;-81
2023/10/19 00:36:06;;;;;;;0.80;0.50;;;19.40;70.70;;;;;;5088489;28;20044;-82
2023/10/19 00:41:11;;;;;;;0.90;0.75;;;19.40;70.60;;;;;;5056941;28;20032;-82
2023/10/19 00:43:43;;;;;;;1.08;0.82;;;19.40;70.70;;;;;;5083457;28;20045;-82
2023/10/19 00:48:58;;;;;;;1.27;0.73;;;19.40;70.70;;;;;;5056574;28;20672;-82
2023/10/19 00:54:15;;;;;;;1.30;0.73;;;19.40;70.70;;;;;;5072487;28;20623;-80
2023/10/19 00:56:48;;;;;;;1.20;0.70;;;19.30;70.60;;;;;;5037507;28;20115;-81
2023/10/19 00:59:22;;;;;;;1.42;0.50;;;19.40;70.60;;;;;;5059490;28;20045;-81
2023/10/19 01:01:49;;;;;;;0.77;0.57;;;19.40;70.60;;;;;;5057591;28;20045;-80
2023/10/19 01:04:20;;;;;;;0.80;0.40;;;19.40;70.70;;;;;;5040435;28;20849;-79
2023/10/19 01:07:00;;;;;;;0.70;0.45;;;19.40;70.60;;;;;;5059142;28;20037;-79
2023/10/19 01:09:34;;;;;;;0.90;0.60;;;19.40;70.60;;;;;;5057086;28;20040;-79
2023/10/19 01:17:38;;;;;;;0.95;0.80;;;19.40;70.70;;;;;;5064195;28;20277;-81
2023/10/19 01:20:19;;;;;;;1.20;0.88;;;19.40;70.70;;;;;;5059723;28;20131;-80
2023/10/19 01:25:46;;;;;;;1.38;0.73;;;19.30;70.70;;;;;;5047247;28;20036;-81
2023/10/19 01:28:16;;;;;;;1.30;0.50;;;19.30;70.60;;;;;;5058783;28;20093;-80
2023/10/19 01:30:42;;;;;;;0.73;0.50;;;19.40;70.80;;;;;;5043142;28;20421;-81
2023/10/19 01:33:12;;;;;;;1.15;0.63;;;19.30;70.60;;;;;;5061389;28;20493;-81
2023/10/19 01:38:31;;;;;;;0.75;0.50;;;19.30;70.60;;;;;;4988159;28;20038;-81
2023/10/19 01:40:59;;;;;;;0.93;0.70;;;19.30;70.70;;;;;;4998682;28;20528;-80
2023/10/19 01:43:31;;;;;;;0.82;0.77;;;19.30;71.50;;;;;;5004658;28;20085;-80
2023/10/19 01:46:06;;;;;;;0.60;0.50;;;19.30;70.70;;;;;;5001951;28;20473;-80
2023/10/19 01:48:35;;;;;;;1.33;0.60;;;19.30;70.70;;;;;;5019981;28;20050;-80
2023/10/19 01:51:04;;;;;;;0.93;0.70;;;19.30;70.70;;;;;;5004025;28;20469;-80
2023/10/19 01:53:33;;;;;;;0.70;0.50;;;19.30;70.70;;;;;;5009799;28;20519;-81
2023/10/19 01:55:59;;;;;;;1.63;0.88;;;19.30;70.70;;;;;;5003393;28;20041;-80
2023/10/19 01:58:25;;;;;;;0.50;0.50;;;19.40;70.80;;;;;;5009060;28;20589;-81
2023/10/19 02:01:00;;;;;;;0.73;0.50;;;19.30;70.70;;;;;;5000961;28;20042;-82
2023/10/19 02:03:28;;;;;;;0.88;0.70;;;19.30;70.80;;;;;;5002293;28;20050;-81
2023/10/19 02:06:00;;;;;;;0.60;0.50;;;19.30;70.90;;;;;;5013904;28;20092;-76
2023/10/19 02:08:26;;;;;;;0.98;0.57;;;19.30;70.90;;;;;;5021020;28;20487;-82
2023/10/19 02:10:53;;;;;;;0.68;0.45;;;19.30;71.00;;;;;;5006617;28;20042;-81
2023/10/19 02:13:19;;;;;;;1.27;0.63;;;19.40;71.00;;;;;;5004559;28;20061;-81
2023/10/19 02:15:45;;;;;;;0.80;0.40;;;19.30;71.00;;;;;;5014546;28;20045;-82
2023/10/19 02:18:11;;;;;;;0.82;0.50;;;19.30;71.00;;;;;;5063934;28;20048;-81
2023/10/19 02:20:41;;;;;;;0.50;0.50;;;19.30;71.70;;;;;;5063255;28;20518;-81
2023/10/19 02:23:09;;;;;;;2.40;0.70;;;19.40;71.10;;;;;;5090469;28;20051;-80
2023/10/19 02:25:37;;;;;;;0.75;0.60;;;19.30;71.10;;;;;;5063530;28;20452;-81
2023/10/19 02:28:09;;;;;;;0.50;0.50;;;19.30;71.10;;;;;;5092663;28;20494;-80
2023/10/19 02:30:34;;;;;;;0.65;0.50;;;19.30;71.10;;;;;;5076699;28;20461;-81
2023/10/19 02:33:01;;;;;;;0.52;0.32;;;19.30;71.10;;;;;;5061990;28;20045;-81
2023/10/19 02:35:30;;;;;;;0.60;0.32;;;19.30;71.10;;;;;;5065425;28;20049;-81
2023/10/19 02:37:56;;;;;;;0.75;0.50;;;19.30;71.30;;;;;;5076397;28;20052;-76
2023/10/19 02:40:23;;;;;;;0.40;0.35;;;19.30;71.20;;;;;;5044615;28;20041;-80
2023/10/19 02:42:53;;;;;;;0.75;0.70;;;19.40;71.30;;;;;;5060868;28;20048;-81
2023/10/19 02:45:19;;;;;;;0.57;0.43;;;19.30;71.30;;;;;;5061365;28;20052;-81
2023/10/19 02:47:45;;;;;;;0.70;0.40;;;19.30;71.30;;;;;;5097199;28;20526;-81
2023/10/19 02:50:15;;;;;;;0.73;0.50;;;19.30;71.30;;;;;;5061354;28;20044;-81
2023/10/19 02:52:41;;;;;;;0.77;0.50;;;19.40;71.40;;;;;;5061784;28;20056;-82
2023/10/19 02:55:07;;;;;;;1.00;0.60;;;19.30;71.30;;;;;;5061958;28;20044;-81
2023/10/19 02:57:33;;;;;;;0.95;0.68;;;19.30;71.40;;;;;;5064433;28;20047;-81
2023/10/19 02:59:59;;;;;;;0.60;0.52;;;19.30;70.90;;;;;;5047404;28;20127;-81
2023/10/19 03:02:26;;;;;;;0.88;0.50;;;19.30;71.30;;;;;;5064629;28;20421;-81
2023/10/19 03:04:54;;;;;;;0.88;0.47;;;19.30;71.30;;;;;;5063986;28;20032;-81
2023/10/19 03:07:20;;;;;;;0.75;0.30;;;19.30;71.30;;;;;;5062046;28;20051;-81
2023/10/19 03:09:49;;;;;;;0.68;0.40;;;19.30;71.20;;;;;;5064433;28;20045;-80
2023/10/19 03:12:14;;;;;;;0.43;0.32;;;19.30;71.30;;;;;;5058955;28;20410;-80
2023/10/19 03:14:43;;;;;;;0.73;0.43;;;19.30;71.30;;;;;;5066101;28;20036;-80
2023/10/19 03:17:09;;;;;;;0.73;0.50;;;19.30;71.30;;;;;;5062634;28;20040;-80
2023/10/19 03:19:35;;;;;;;1.25;0.40;;;19.40;71.40;;;;;;5058141;28;20051;-80
2023/10/19 03:22:01;;;;;;;0.68;0.50;;;19.30;71.30;;;;;;5059107;28;20056;-81
2023/10/19 03:24:35;;;;;;;0.63;0.40;;;19.30;71.40;;;;;;5059132;28;20033;-81
2023/10/19 03:27:08;;;;;;;0.50;0.45;;;19.30;71.50;;;;;;5061167;28;20040;-80
2023/10/19 03:29:38;;;;;;;0.60;0.40;;;19.30;71.40;;;;;;5063143;28;20075;-81
2023/10/19 03:32:07;;;;;;;0.50;0.50;;;19.30;71.60;;;;;;5063077;28;20048;-80
2023/10/19 03:34:33;;;;;;;0.82;0.70;;;19.30;71.70;;;;;;5063489;28;20048;-81
2023/10/19 03:37:05;;;;;;;1.75;0.45;;;19.30;72.30;;;;;;5063326;28;20083;-80
2023/10/19 03:39:33;;;;;;;0.47;0.32;;;19.30;71.60;;;;;;5063320;28;20044;-80
2023/10/19 03:41:59;;;;;;;0.47;0.40;;;19.30;71.60;;;;;;5062426;28;20048;-81
2023/10/19 03:44:24;;;;;;;0.30;0.30;;;19.30;71.60;;;;;;5065074;28;20557;-81
2023/10/19 03:46:53;;;;;;;0.70;0.30;;;19.30;71.50;;;;;;5062796;28;20453;-81
2023/10/19 03:49:22;;;;;;;1.52;0.40;;;19.30;71.50;;;;;;5045804;28;20061;-80
2023/10/19 03:54:33;;;;;;;0.50;0.40;;;19.30;71.30;;;;;;5061984;28;20533;-80
2023/10/19 03:57:03;;;;;;;0.63;0.30;;;19.30;71.40;;;;;;5062590;28;20125;-81
2023/10/19 03:59:32;;;;;;;0.50;0.40;;;19.30;71.30;;;;;;5062131;28;20036;-80
2023/10/19 04:01:59;;;;;;;0.57;0.40;;;19.30;71.40;;;;;;5061415;28;20557;-82
2023/10/19 04:04:25;;;;;;;0.80;0.30;;;19.30;71.50;;;;;;5063386;28;20056;-82
2023/10/19 04:06:57;;;;;;;0.50;0.40;;;19.30;71.40;;;;;;5061432;28;20049;-82
2023/10/19 04:09:26;;;;;;;0.47;0.30;;;19.30;71.60;;;;;;5059307;28;20032;-81
2023/10/19 04:11:56;;;;;;;0.35;0.28;;;19.30;71.70;;;;;;5060248;28;20040;-81
2023/10/19 04:14:21;;;;;;;0.63;0.47;;;19.30;71.60;;;;;;5046118;28;20036;-80
2023/10/19 04:16:48;;;;;;;0.43;0.43;;;19.30;71.70;;;;;;5061813;28;20037;-80
2023/10/19 04:19:15;;;;;;;0.25;0.25;;;19.30;71.60;;;;;;5092564;28;20055;-79
2023/10/19 04:21:46;;;;;;;0.85;0.35;;;19.30;71.50;;;;;;5062371;28;20045;-80
2023/10/19 04:24:12;;;;;;;0.50;0.40;;;19.30;71.60;;;;;;5062000;28;20166;-80
2023/10/19 04:26:37;;;;;;;0.25;0.20;;;19.30;71.60;;;;;;5047522;28;20040;-80
2023/10/19 04:29:10;;;;;;;0.60;0.35;;;19.30;71.50;;;;;;5060574;28;20051;-79
2023/10/19 04:31:54;;;;;;;0.52;0.40;;;19.30;71.50;;;;;;5061318;28;20082;-81
2023/10/19 04:34:20;;;;;;;0.30;0.25;;;19.30;71.50;;;;;;5044150;28;20032;-80
2023/10/19 04:36:52;;;;;;;0.40;0.25;;;19.30;71.50;;;;;;5059868;28;20037;-81
2023/10/19 04:39:21;;;;;;;0.30;0.28;;;19.30;71.50;;;;;;5061916;28;20051;-81
2023/10/19 04:41:48;;;;;;;0.60;0.30;;;19.30;72.20;;;;;;5096065;28;20561;-81
2023/10/19 04:44:15;;;;;;;0.30;0.30;;;19.30;71.50;;;;;;5062864;28;20411;-81
2023/10/19 04:46:41;;;;;;;0.40;0.30;;;19.30;71.50;;;;;;5046500;28;20045;-80
2023/10/19 04:49:06;;;;;;;0.60;0.40;;;19.30;71.50;;;;;;5061646;28;20065;-80
2023/10/19 04:51:33;;;;;;;0.30;0.20;;;19.30;71.50;;;;;;5060881;28;20455;-81
2023/10/19 04:53:59;;;;;;;0.80;0.40;;;19.30;71.50;;;;;;5061665;28;20045;-81
2023/10/19 04:56:24;;;;;;;0.30;0.30;;;19.30;71.60;;;;;;5060351;28;20051;-80
2023/10/19 04:58:50;;;;;;;0.40;0.40;;;19.30;71.50;;;;;;5060285;28;20040;-81
2023/10/19 05:01:15;;;;;;;0.20;0.20;;;19.30;71.50;;;;;;5058706;28;20406;-80
2023/10/19 05:03:41;;;;;;;0.52;0.40;;;19.30;71.50;;;;;;5058010;28;20127;-80
2023/10/19 05:06:09;;;;;;;0.40;0.40;;;19.30;71.50;;;;;;5090802;28;20067;-80
2023/10/19 05:08:35;;;;;;;0.40;0.40;;;19.30;71.50;;;;;;5062955;28;20094;-80
2023/10/19 05:11:00;;;;;;;0.30;0.30;;;19.30;71.50;;;;;;5061657;28;20048;-81
2023/10/19 05:13:26;;;;;;;0.40;0.30;;;19.30;71.50;;;;;;5060837;28;20036;-80
2023/10/19 05:15:56;;;;;;;0.60;0.30;;;19.30;71.50;;;;;;5060407;28;20498;-81
2023/10/19 05:18:22;;;;;;;0.75;0.30;;;19.30;71.50;;;;;;5057983;28;20044;-80
2023/10/19 05:20:48;;;;;;;0.20;0.20;;;19.30;71.40;;;;;;5063690;28;20048;-80
2023/10/19 05:23:13;;;;;;;0.70;0.20;;;19.30;71.50;;;;;;5063931;28;20044;-80
2023/10/19 05:25:39;;;;;;;0.55;0.20;;;19.30;71.50;;;;;;5059795;28;20050;-80
2023/10/19 05:28:05;;;;;;;0.20;0.20;;;19.30;71.50;;;;;;5081081;28;20037;-80
2023/10/19 05:30:35;;;;;;;0.47;0.30;;;19.30;71.40;;;;;;5065380;28;20417;-80
2023/10/19 05:33:01;;;;;;;0.28;0.25;;;19.30;71.40;;;;;;5049875;28;20044;-81
2023/10/19 05:35:28;;;;;;;0.30;0.20;;;19.30;71.40;;;;;;5066318;28;20056;-81
2023/10/19 05:37:56;;;;;;;0.30;0.30;;;19.30;71.70;;;;;;5062688;28;20044;-83
2023/10/19 05:40:31;;;;;;;0.20;0.10;;;19.30;72.50;;;;;;5061610;28;20031;-83
2023/10/19 05:42:57;;;;;;;0.40;0.30;;;19.30;71.70;;;;;;5064467;28;20051;-84
2023/10/19 05:45:23;;;;;;;0.32;0.20;;;19.30;72.10;;;;;;5060506;28;20048;-84
2023/10/19 05:47:49;;;;;;;0.40;0.30;;;19.30;71.60;;;;;;5065871;28;20053;-83
2023/10/19 05:50:15;;;;;;;0.25;0.22;;;19.40;72.40;;;;;;5064466;28;20052;-83
2023/10/19 05:52:43;;;;;;;0.20;0.20;;;19.30;71.60;;;;;;5061098;28;20057;-82
2023/10/19 05:55:10;;;;;;;0.40;0.40;;;19.30;71.60;;;;;;5059369;28;20040;-82
2023/10/19 05:57:40;;;;;;;0.20;0.20;;;19.30;71.60;;;;;;5077855;28;20048;-84
2023/10/19 06:00:12;;;;;;;0.28;0.28;;;19.30;72.30;;;;;;5097831;28;20051;-85
2023/10/19 06:02:45;;;;;;;0.40;0.40;;;19.30;71.40;;;;;;5066924;28;20506;-76
2023/10/19 06:05:10;;;;;;;0.40;0.30;;;19.30;71.50;;;;;;5063068;28;20502;-76
2023/10/19 06:07:37;;;;;;;0.40;0.40;;;19.30;71.60;;;;;;5064745;28;20044;-77
2023/10/19 06:10:06;;;;;;;0.30;0.30;;;19.30;71.60;;;;;;5064042;28;20048;-79
2023/10/19 06:12:32;;;;;;;0.88;0.30;;;19.30;71.60;;;;;;5063629;28;20073;-81
2023/10/19 06:14:58;;;;;;;0.38;0.25;;;19.30;71.60;;;;;;5063784;28;20053;-80
2023/10/19 06:17:24;;;;;;;0.32;0.20;;;19.30;71.60;;;;;;5062672;28;20051;-79
2023/10/19 06:19:49;;;;;;;0.20;0.17;;;19.30;71.60;;;;;;5061678;28;20518;-79
2023/10/19 06:22:18;;;;;;;0.10;0.10;;;19.30;71.40;;;;;;5055689;28;20044;-77
2023/10/19 06:24:43;;;;;;;0.43;0.20;;;19.30;71.50;;;;;;5066201;28;20033;-79
2023/10/19 06:27:10;;;;;;;0.47;0.30;;;19.30;71.30;;;;;;5065741;28;20063;-78
2023/10/19 06:29:35;;;;;;;0.30;0.30;;;19.30;71.40;;;;;;5060944;28;20032;-79
2023/10/19 06:32:02;;;;;;;0.32;0.20;;;19.40;71.50;;;;;;5058891;28;20052;-79
2023/10/19 06:34:28;;;;;;;0.20;0.20;;;19.30;71.60;;;;;;5060838;28;20051;-79
2023/10/19 06:36:54;;;;;;;0.88;0.30;;;19.30;71.40;;;;;;5063124;28;20040;-79
2023/10/19 06:39:21;;;;;;;1.17;0.40;;;19.30;72.20;;;;;;5063739;28;20074;-79
2023/10/19 06:41:46;;;;;;;0.47;0.38;;;19.30;72.60;;;;;;4711679;28;10000522;-81
2023/10/19 06:44:13;;;;;;;1.10;0.30;;;19.30;72.70;;;;;;5060281;28;20048;-79
2023/10/19 06:46:39;;;;;;;1.95;0.60;;;19.30;72.70;;;;;;5059567;28;20067;-79
2023/10/19 06:49:05;;;;;;;0.50;0.50;;;19.30;72.70;;;;;;5059647;28;20413;-78
2023/10/19 06:51:32;;;;;;;0.60;0.40;;;19.30;72.80;;;;;;5059378;28;20037;-79
2023/10/19 06:53:57;;;;;;;1.45;0.40;;;19.30;73.30;;;;;;5060951;28;20052;-79
2023/10/19 06:56:23;;;;;;;0.52;0.40;;;19.30;72.50;;;;;;5060983;28;20044;-79
2023/10/19 06:58:49;;;;;;;0.77;0.52;;;19.30;72.50;;;;;;5060096;28;20127;-81
2023/10/19 07:01:17;;;;;;;2.38;0.32;;;19.30;72.40;;;;;;5057553;28;20048;-80
2023/10/19 07:03:43;;;;;;;1.25;0.57;;;19.40;72.60;;;;;;5060715;28;20052;-81
2023/10/19 07:06:13;;;;;;;1.70;0.50;;;19.40;72.60;;;;;;5062312;28;20426;-81
2023/10/19 07:08:40;;;;;;;1.05;0.50;;;19.40;73.10;;;;;;5064239;28;20097;-80
2023/10/19 07:11:07;;;;;;;1.00;0.65;;;19.30;73.30;;;;;;5063784;28;20040;-80
2023/10/19 07:13:33;;;;;;;0.90;0.55;;;19.40;73.40;;;;;;5060716;28;20110;-80
2023/10/19 07:15:59;;;;;;;0.60;0.40;;;19.40;74.00;;;;;;5044994;28;20231;-80
2023/10/19 07:18:24;;;;;;;0.60;0.40;;;19.40;73.30;;;;;;5059828;28;20128;-80
2023/10/19 07:20:50;;;;;;;1.58;0.40;;;19.40;73.20;;;;;;5061851;28;20052;-80
2023/10/19 07:23:19;;;;;;;0.50;0.35;;;19.40;73.10;;;;;;5061465;28;20052;-80
2023/10/19 07:25:47;;;;;;;1.13;0.82;;;19.40;72.90;;;;;;5062361;28;20044;-81
2023/10/19 07:28:13;;;;;;;1.08;0.40;;;19.40;73.00;;;;;;5060428;28;20442;-80
2023/10/19 07:30:40;;;;;;;0.70;0.35;;;19.40;73.00;;;;;;5059925;28;20087;-80
2023/10/19 07:33:05;;;;;;;0.70;0.32;;;19.40;73.00;;;;;;5063163;28;20052;-80
2023/10/19 07:35:34;;;;;;;1.05;0.35;;;19.40;73.10;;;;;;5063981;28;20040;-80
2023/10/19 07:38:01;;;;;;;2.92;0.45;;;19.40;74.00;;;;;;5063309;28;20140;-81
2023/10/19 07:40:27;;;;;;;1.45;0.30;;;19.40;73.40;;;;;;5064099;28;20131;-80
2023/10/19 07:42:54;;;;;;;1.02;0.63;;;19.40;73.40;;;;;;5061762;28;20044;-80
2023/10/19 07:45:19;;;;;;;1.27;0.40;;;19.40;73.40;;;;;;5061721;28;20456;-79
2023/10/19 07:47:46;;;;;;;0.50;0.20;;;19.40;73.40;;;;;;5078621;28;20611;-80
2023/10/19 07:50:15;;;;;;;0.70;0.40;;;19.40;73.50;;;;;;5063056;28;20052;-80
2023/10/19 07:52:46;;;;;;;0.50;0.40;;;19.40;73.40;;;;;;5061306;28;20524;-80
2023/10/19 07:55:11;;;;;;;0.68;0.47;;;19.40;73.40;;;;;;5060711;28;20107;-80
2023/10/19 07:57:38;;;;;;;0.73;0.43;;;19.40;73.40;;;;;;5062356;28;20534;-80
2023/10/19 08:00:04;;;;;;;1.23;0.60;;;19.40;73.50;;;;;;5063001;28;20033;-80
2023/10/19 08:02:30;;;;;;;1.13;0.38;;;19.40;73.40;;;;;;5092719;28;20080;-80
2023/10/19 08:04:56;;;;;;;1.65;0.43;;;19.40;73.40;;;;;;5061750;28;20090;-80
2023/10/19 08:07:22;;;;;;;1.48;0.25;;;19.40;73.40;;;;;;5059788;28;20052;-80
2023/10/19 08:09:47;;;;;;;1.02;0.38;;;19.40;73.40;;;;;;5064417;28;20505;-80
2023/10/19 08:12:13;;;;;;;0.55;0.30;;;19.40;73.40;;;;;;5064047;28;20037;-80
2023/10/19 08:14:39;;;;;;;0.25;0.20;;;19.40;73.40;;;;;;5063705;28;20045;-80
2023/10/19 08:17:04;;;;;;;0.70;0.68;;;19.40;73.70;;;;;;5047055;28;20060;-80
2023/10/19 08:19:31;;;;;;;0.28;0.28;;;19.40;73.80;;;;;;5061335;28;20086;-80
2023/10/19 08:21:57;;;;;;;0.93;0.47;;;19.40;73.80;;;;;;5061214;28;20060;-80
2023/10/19 08:24:23;;;;;;;1.77;0.63;;;19.40;73.70;;;;;;5060867;28;20130;-79
2023/10/19 08:26:48;;;;;;;0.73;0.30;;;19.40;74.10;;;;;;5065268;28;20452;-80
2023/10/19 08:29:14;;;;;;;0.40;0.20;;;19.40;73.80;;;;;;5064791;28;20159;-81
2023/10/19 08:31:44;;;;;;;2.40;0.57;;;19.40;73.80;;;;;;5060116;28;20525;-80
2023/10/19 08:34:11;;;;;;;0.52;0.30;;;19.40;73.70;;;;;;5061526;28;20116;-80
2023/10/19 08:36:40;;;;;;;0.35;0.25;;;19.40;74.60;;;;;;5060098;28;20119;-80
2023/10/19 08:39:06;;;;;;;0.68;0.38;;;19.40;73.70;;;;;;5063801;28;20098;-80
2023/10/19 08:41:34;;;;;;;0.73;0.28;;;19.40;73.80;;;;;;5063879;28;20036;-80
2023/10/19 08:44:10;;;;;;;0.50;0.30;;;19.40;73.80;;;;;;5062593;28;20135;-80
2023/10/19 08:46:47;;;;;;;0.30;0.30;;;19.40;73.40;;;;;;5061009;28;20048;-80
2023/10/19 08:49:13;;;;;;;1.00;0.50;;;19.40;73.40;;;;;;5048480;28;20170;-81
2023/10/19 08:51:39;;;;;;;0.93;0.50;;;19.40;73.40;;;;;;5060828;28;20056;-80
2023/10/19 08:54:10;;;;;;;0.90;0.52;;;19.40;73.50;;;;;;5063566;28;20035;-80
2023/10/19 08:56:36;;;;;;;1.25;0.50;;;19.40;73.40;;;;;;5095434;28;20087;-80
2023/10/19 08:59:02;;;;;;;0.85;0.40;;;19.40;73.40;;;;;;5067105;28;20040;-80
2023/10/19 09:01:28;;;;;;;1.63;0.52;;;19.40;73.20;;;;;;5064592;28;20056;-79
2023/10/19 09:03:57;;;;;;;0.98;0.40;;;19.40;73.20;;;;;;5065795;28;20044;-80
2023/10/19 09:06:22;;;;;;;0.30;0.20;;;19.40;73.20;;;;;;5098066;28;20048;-79
2023/10/19 09:08:48;;;;;;;0.50;0.22;;;19.40;73.10;;;;;;5069025;28;20037;-80
2023/10/19 09:11:14;;;;;;;0.50;0.30;;;19.40;73.30;;;;;;5099316;28;20391;-81
2023/10/19 09:13:47;;;;;;;0.35;0.28;;;19.40;73.40;;;;;;5063474;28;20501;-80
2023/10/19 09:16:14;;;;;;;0.30;0.20;;;19.40;73.40;;;;;;5063574;28;20048;-80
2023/10/19 09:18:40;;;;;;;0.30;0.20;;;19.40;73.40;;;;;;5096545;28;20406;-80
2023/10/19 09:21:12;;;;;;;0.43;0.30;;;19.40;73.40;;;;;;5065973;28;20520;-80
2023/10/19 09:23:38;;;;;;;1.30;0.40;;;19.40;73.40;;;;;;5067309;28;20515;-80
2023/10/19 09:26:05;;;;;;;0.82;0.50;;;19.40;73.40;;;;;;5066398;28;20051;-80
2023/10/19 09:28:33;;;;;;;0.47;0.40;;;19.40;73.40;;;;;;5065887;28;20043;-80
2023/10/19 09:30:59;;;;;;;0.50;0.30;;;19.40;73.40;;;;;;5063586;28;20060;-80
2023/10/19 09:33:24;;;;;;;0.47;0.40;;;19.40;73.40;;;;;;5080600;28;20079;-79
2023/10/19 09:35:52;;;;;;;0.45;0.40;;;19.40;73.30;;;;;;5084621;28;20051;-80
2023/10/19 09:38:27;;;;;;;0.52;0.50;;;19.40;73.20;;;;;;5065715;28;20040;-80
2023/10/19 09:40:54;;;;;;;0.60;0.45;;;19.40;72.60;;;;;;5064462;28;20494;-80
2023/10/19 09:43:38;;;;;;;0.95;0.60;;;19.40;72.80;;;;;;5064936;28;20131;-80
2023/10/19 09:46:08;;;;;;;0.80;0.38;;;19.40;72.30;;;;;;5060956;28;20109;-80
2023/10/19 09:48:41;;;;;;;0.50;0.40;;;19.50;72.50;;;;;;5066441;28;20173;-80
2023/10/19 09:51:08;;;;;;;0.38;0.38;;;19.50;72.50;;;;;;5065113;28;20040;-80
2023/10/19 09:53:34;;;;;;;1.08;0.55;;;19.50;72.50;;;;;;5067685;28;20114;-80
2023/10/19 09:55:59;;;;;;;0.40;0.30;;;19.50;72.50;;;;;;5063229;28;20056;-81
2023/10/19 09:58:29;;;;;;;0.98;0.35;;;19.50;72.40;;;;;;5066740;28;20135;-79
2023/10/19 10:00:57;;;;;;;0.47;0.25;;;19.50;72.30;;;;;;5093838;28;20033;-80
2023/10/19 10:03:51;;;;;;;0.50;0.43;;;19.50;72.20;;;;;;5060604;28;20045;-79
2023/10/19 10:06:26;;;;;;;1.17;0.40;;;19.50;72.30;;;;;;5065301;28;20052;-83
2023/10/19 10:08:52;;;;;;;1.00;0.40;;;19.50;72.40;;;;;;5066386;28;20071;-81
2023/10/19 10:11:19;;;;;;;1.63;0.65;;;19.60;72.60;;;;;;5092243;28;20073;-80
2023/10/19 10:13:45;;;;;;;1.40;0.95;;;19.60;72.90;;;;;;5064566;28;20422;-81
2023/10/19 10:16:13;;;;;;;1.25;0.57;;;19.60;73.80;;;;;;5064870;28;20040;-79
2023/10/19 10:18:39;;;;;;;0.98;0.60;;;19.60;73.10;;;;;;5094839;28;20109;-79
2023/10/19 10:21:10;;;;;;;1.35;0.57;;;19.60;73.80;;;;;;5081856;28;20044;-79
2023/10/19 10:23:45;;;;;;;1.23;0.70;;;19.60;73.80;;;;;;5066127;28;20457;-80
2023/10/19 10:26:14;;;;;;;1.08;0.80;;;19.60;73.50;;;;;;5065270;28;20056;-80
2023/10/19 10:28:40;;;;;;;0.60;0.60;;;19.60;73.40;;;;;;5061205;28;20091;-79
2023/10/19 10:31:20;;;;;;;0.43;0.30;;;19.60;73.10;;;;;;5062833;28;20029;-79
2023/10/19 10:33:49;;;;;;;1.45;0.40;;;19.60;73.30;;;;;;5064768;28;20433;-80
2023/10/19 10:36:16;;;;;;;1.08;0.40;;;19.60;73.40;;;;;;5097950;28;20059;-80
2023/10/19 10:38:43;;;;;;;0.98;0.40;;;19.60;73.40;;;;;;5065195;28;20131;-80
2023/10/19 10:41:11;;;;;;;0.50;0.40;;;19.60;73.50;;;;;;5066327;28;20052;-80
2023/10/19 10:43:53;;;;;;;1.00;0.60;;;19.60;73.40;;;;;;5062767;28;20098;-79
2023/10/19 10:46:21;;;;;;;0.60;0.60;;;19.60;73.40;;;;;;5063303;28;20116;-80
2023/10/19 10:48:48;;;;;;;0.77;0.60;;;19.60;73.30;;;;;;5048140;28;20498;-79
2023/10/19 10:51:24;;;;;;;0.85;0.63;;;19.60;73.20;;;;;;5066227;28;20123;-80
2023/10/19 10:53:51;;;;;;;0.50;0.50;;;19.60;73.20;;;;;;5065691;28;20507;-80
2023/10/19 10:56:17;;;;;;;1.25;0.80;;;19.60;74.00;;;;;;5066089;28;20041;-80
2023/10/19 10:58:43;;;;;;;0.77;0.43;;;19.50;73.20;;;;;;5061833;28;20685;-80
2023/10/19 11:01:10;;;;;;;0.63;0.43;;;19.50;73.20;;;;;;5064041;28;20182;-79
2023/10/19 11:03:36;;;;;;;0.52;0.40;;;19.50;73.20;;;;;;5064385;28;20064;-80
2023/10/19 11:06:09;;;;;;;0.43;0.43;;;19.50;73.10;;;;;;5064392;28;20048;-79
2023/10/19 11:08:35;;;;;;;1.17;0.52;;;19.50;73.10;;;;;;5064728;28;20125;-80
2023/10/19 11:11:05;;;;;;;1.25;0.43;;;19.50;73.00;;;;;;5065614;28;20052;-79
2023/10/19 11:13:33;;;;;;;0.80;0.30;;;19.50;73.10;;;;;;5063051;28;20056;-78
2023/10/19 11:16:00;;;;;;;0.60;0.50;;;19.50;73.00;;;;;;5063538;28;20036;-79
2023/10/19 11:18:30;;;;;;;1.30;0.47;;;19.50;72.90;;;;;;5063189;28;20078;-79
2023/10/19 11:20:59;;;;;;;0.90;0.30;;;19.50;72.80;;;;;;5064416;28;20137;-79
2023/10/19 11:23:45;;;;;;;0.43;0.38;;;19.50;72.80;;;;;;5090676;28;20040;-80
2023/10/19 11:26:11;;;;;;;0.77;0.25;;;19.50;72.80;;;;;;5059149;28;20037;-80
2023/10/19 11:28:44;;;;;;;0.82;0.40;;;19.50;72.80;;;;;;5061879;28;20060;-80
2023/10/19 11:31:16;;;;;;;0.55;0.40;;;19.50;72.80;;;;;;5063475;28;20045;-80
2023/10/19 11:33:43;;;;;;;0.70;0.32;;;19.50;72.80;;;;;;5058656;28;20037;-80
2023/10/19 11:36:09;;;;;;;0.55;0.28;;;19.50;72.80;;;;;;5063965;28;20071;-80
2023/10/19 11:38:35;;;;;;;0.80;0.45;;;19.50;72.90;;;;;;5066233;28;20494;-79
2023/10/19 11:41:03;;;;;;;0.82;0.75;;;19.50;72.90;;;;;;5064338;28;20032;-80
2023/10/19 11:43:28;;;;;;;0.43;0.30;;;19.50;72.90;;;;;;5062075;28;20422;-77
2023/10/19 11:45:54;;;;;;;1.02;0.50;;;19.50;73.00;;;;;;5064868;28;20029;-79
2023/10/19 11:48:20;;;;;;;0.60;0.40;;;19.50;73.00;;;;;;5097566;28;20043;-80
2023/10/19 11:50:47;;;;;;;0.45;0.40;;;19.50;73.00;;;;;;5061984;28;20098;-79
2023/10/19 11:53:13;;;;;;;0.55;0.32;;;19.50;73.00;;;;;;5063107;28;20387;-80
2023/10/19 11:55:41;;;;;;;0.50;0.30;;;19.50;72.90;;;;;;5062331;28;20048;-79
2023/10/19 11:58:11;;;;;;;0.40;0.40;;;19.50;72.90;;;;;;5046766;28;20044;-80
2023/10/19 12:00:37;;;;;;;1.73;0.35;;;19.50;72.80;;;;;;5060839;28;20391;-79
2023/10/19 12:03:04;;;;;;;0.52;0.50;;;19.50;72.80;;;;;;5065269;28;20063;-79
2023/10/19 12:05:30;;;;;;;0.38;0.30;;;19.50;72.80;;;;;;5065694;28;20045;-80
2023/10/19 12:07:56;;;;;;;0.60;0.40;;;19.50;72.80;;;;;;5059860;28;20067;-79
2023/10/19 12:10:28;;;;;;;0.82;0.30;;;19.50;73.40;;;;;;5063684;28;20044;-80
2023/10/19 12:12:53;;;;;;;0.52;0.30;;;19.50;72.60;;;;;;5061868;28;20107;-79
2023/10/19 12:15:22;;;;;;;0.30;0.30;;;19.50;72.50;;;;;;5062163;28;20132;-79
2023/10/19 12:17:50;;;;;;;0.35;0.20;;;19.50;72.50;;;;;;5064520;28;20042;-79
2023/10/19 12:20:15;;;;;;;0.55;0.32;;;19.50;72.50;;;;;;5062367;28;20041;-79
2023/10/19 12:22:42;;;;;;;0.85;0.30;;;19.50;72.50;;;;;;5059418;28;20095;-78
2023/10/19 12:25:08;;;;;;;0.50;0.40;;;19.50;72.30;;;;;;5062749;28;20048;-79
2023/10/19 12:27:33;;;;;;;0.68;0.40;;;19.50;72.40;;;;;;5063376;28;20046;-79
2023/10/19 12:29:59;;;;;;;0.80;0.50;;;19.50;72.20;;;;;;5061806;28;20044;-80
2023/10/19 12:32:25;;;;;;;0.40;0.30;;;19.50;72.20;;;;;;5063746;28;20518;-80
2023/10/19 12:34:57;;;;;;;0.68;0.40;;;19.50;72.40;;;;;;5063617;28;23385;-79
2023/10/19 12:37:24;;;;;;;0.45;0.30;;;19.50;72.40;;;;;;5062343;28;20044;-80
2023/10/19 12:39:49;;;;;;;0.50;0.40;;;19.50;72.30;;;;;;5062859;28;20040;-79
2023/10/19 12:42:18;;;;;;;0.40;0.30;;;19.50;72.30;;;;;;5060851;28;20095;-79
2023/10/19 12:44:43;;;;;;;0.50;0.25;;;19.50;73.00;;;;;;5064197;28;20040;-79
2023/10/19 12:47:10;;;;;;;0.70;0.30;;;19.50;72.20;;;;;;5045369;28;20040;-79
2023/10/19 12:49:40;;;;;;;0.40;0.28;;;19.60;72.30;;;;;;5062044;28;20528;-78
2023/10/19 12:52:07;;;;;;;0.52;0.40;;;19.60;72.20;;;;;;5062854;28;20128;-79
2023/10/19 12:54:35;;;;;;;0.57;0.40;;;19.60;72.20;;;;;;5060323;28;20057;-79
2023/10/19 12:57:03;;;;;;;0.50;0.30;;;19.50;72.30;;;;;;5055354;28;20051;-80
2023/10/19 12:59:29;;;;;;;0.60;0.40;;;19.50;72.20;;;;;;5062919;28;20033;-79
2023/10/19 13:01:58;;;;;;;0.32;0.30;;;19.50;72.30;;;;;;5063328;28;20040;-79
2023/10/19 13:04:24;;;;;;;0.80;0.50;;;19.50;72.20;;;;;;5061419;28;20049;-79
2023/10/19 13:06:51;;;;;;;0.65;0.35;;;19.50;72.20;;;;;;5061579;28;20036;-80
2023/10/19 13:09:21;;;;;;;0.57;0.35;;;19.50;72.10;;;;;;5061760;28;20047;-79
2023/10/19 13:11:51;;;;;;;0.50;0.30;;;19.50;72.10;;;;;;5064104;28;20052;-79
2023/10/19 13:14:20;;;;;;;1.05;0.30;;;19.50;72.00;;;;;;5061518;28;20052;-79
2023/10/19 13:16:45;;;;;;;0.60;0.43;;;19.50;72.10;;;;;;5063587;28;20101;-78